createdAt,value
2018-02-12T00:01:29.089Z,56.40
2018-02-12T00:03:58.241Z,56.70
2018-02-12T00:06:28.069Z,57.30
2018-02-12T00:08:57.947Z,56.90
2018-02-12T00:11:26.978Z,56.90
2018-02-12T00:13:56.086Z,57.10
2018-02-12T00:16:25.145Z,57.30
2018-02-12T00:18:54.247Z,57.10
2018-02-12T00:21:23.329Z,57.00
2018-02-12T00:23:52.361Z,57.20
2018-02-12T00:26:21.429Z,57.50
2018-02-12T00:28:51.304Z,57.90
2018-02-12T00:31:20.351Z,58.00
2018-02-12T00:33:49.477Z,57.80
2018-02-12T00:36:18.574Z,57.70
2018-02-12T00:38:47.622Z,57.60
2018-02-12T00:41:17.478Z,58.20
2018-02-12T00:43:46.553Z,58.10
2018-02-12T00:46:15.636Z,58.00
2018-02-12T00:48:44.697Z,57.80
2018-02-12T00:51:13.797Z,58.20
2018-02-12T00:53:43.641Z,57.80
2018-02-12T00:56:12.749Z,57.80
2018-02-12T00:58:41.817Z,57.90
2018-02-12T01:01:10.889Z,58.00
2018-02-12T01:03:39.952Z,58.00
2018-02-12T01:06:09.074Z,58.40
2018-02-12T01:08:38.896Z,58.80
2018-02-12T01:11:08.761Z,58.40
2018-02-12T01:13:37.974Z,57.80
2018-02-12T01:16:07.037Z,57.80
2018-02-12T01:18:36.133Z,58.20
2018-02-12T01:21:05.177Z,58.40
2018-02-12T01:23:34.982Z,58.30
2018-02-12T01:26:04.044Z,58.30
2018-02-12T01:28:33.094Z,58.30
2018-02-12T01:31:02.205Z,58.20
2018-02-12T01:33:31.281Z,58.20
2018-02-12T01:36:00.381Z,58.20
2018-02-12T01:38:29.430Z,58.30
2018-02-12T01:40:58.498Z,58.20
2018-02-12T01:43:27.589Z,58.20
2018-02-12T01:45:56.649Z,58.40
2018-02-12T01:48:25.821Z,58.20
2018-02-12T01:50:54.885Z,58.50
2018-02-12T01:53:23.945Z,58.20
2018-02-12T01:55:53.005Z,58.20
2018-02-12T01:58:22.106Z,58.20
2018-02-12T02:00:51.205Z,58.80
2018-02-12T02:03:20.259Z,58.40
2018-02-12T02:05:50.149Z,58.60
2018-02-12T02:08:19.197Z,58.60
2018-02-12T02:10:48.300Z,58.50
2018-02-12T02:13:18.138Z,58.40
2018-02-12T02:15:47.186Z,58.30
2018-02-12T02:18:16.235Z,58.70
2018-02-12T02:20:46.104Z,58.70
2018-02-12T02:23:15.165Z,58.60
2018-02-12T02:25:44.293Z,58.60
2018-02-12T02:28:14.133Z,58.70
2018-02-12T02:30:43.969Z,58.60
2018-02-12T02:33:13.094Z,58.70
2018-02-12T02:35:42.165Z,58.50
2018-02-12T02:38:12.041Z,58.10
2018-02-12T02:40:41.140Z,58.10
2018-02-12T02:43:10.250Z,58.10
2018-02-12T02:45:39.335Z,58.00
2018-02-12T02:48:08.499Z,58.00
2018-02-12T02:50:37.557Z,58.40
2018-02-12T02:53:06.714Z,58.80
2018-02-12T02:55:35.821Z,59.20
2018-02-12T02:58:04.920Z,59.00
2018-02-12T03:00:34.232Z,59.00
2018-02-12T03:03:03.306Z,58.80
2018-02-12T03:05:33.173Z,59.20
2018-02-12T03:08:02.257Z,59.20
2018-02-12T03:10:31.356Z,59.20
2018-02-12T03:13:01.170Z,58.30
2018-02-12T03:15:30.256Z,58.20
2018-02-12T03:17:59.317Z,58.20
2018-02-12T03:20:28.549Z,58.30
2018-02-12T03:22:57.665Z,58.20
2018-02-12T03:25:26.773Z,58.20
2018-02-12T03:27:55.823Z,58.20
2018-02-12T03:30:25.712Z,58.20
2018-02-12T03:32:54.753Z,58.10
2018-02-12T03:35:23.852Z,58.10
2018-02-12T03:37:52.941Z,58.00
2018-02-12T03:40:22.068Z,57.50
2018-02-12T03:42:51.137Z,58.10
2018-02-12T03:45:20.238Z,58.00
2018-02-12T03:47:49.282Z,58.00
2018-02-12T03:50:18.410Z,58.00
2018-02-12T03:52:47.518Z,58.00
2018-02-12T03:55:16.573Z,58.00
2018-02-12T03:57:46.462Z,58.00
2018-02-12T04:00:15.534Z,58.00
2018-02-12T04:02:44.671Z,58.10
2018-02-12T04:05:13.714Z,57.90
2018-02-12T04:07:42.806Z,57.90
2018-02-12T04:10:11.858Z,58.60
2018-02-12T04:12:40.897Z,58.10
2018-02-12T04:15:10.029Z,58.10
2018-02-12T04:17:39.084Z,58.20
2018-02-12T04:20:08.933Z,58.20
2018-02-12T04:22:38.006Z,58.20
2018-02-12T04:25:07.846Z,58.00
2018-02-12T04:27:37.653Z,57.80
2018-02-12T04:30:06.753Z,57.80
2018-02-12T04:32:35.801Z,57.60
2018-02-12T04:35:05.029Z,57.60
2018-02-12T04:37:34.082Z,58.00
2018-02-12T04:40:03.197Z,57.30
2018-02-12T04:42:32.257Z,57.20
2018-02-12T04:45:01.352Z,57.20
2018-02-12T04:47:31.189Z,57.00
2018-02-12T04:50:00.282Z,57.00
2018-02-12T04:52:30.083Z,57.00
2018-02-12T04:54:59.149Z,57.00
2018-02-12T04:57:28.301Z,57.30
2018-02-12T04:59:57.377Z,56.70
2018-02-12T05:02:26.453Z,56.60
2018-02-12T05:04:56.265Z,56.50
2018-02-12T05:07:26.117Z,56.50
2018-02-12T05:09:55.166Z,56.50
2018-02-12T05:12:24.302Z,56.40
2018-02-12T05:14:54.155Z,56.10
2018-02-12T05:17:24.019Z,56.50
2018-02-12T05:19:53.078Z,55.80
2018-02-12T05:22:22.926Z,55.50
2018-02-12T05:24:51.989Z,55.40
2018-02-12T05:27:21.054Z,55.50
2018-02-12T05:29:50.120Z,55.60
2018-02-12T05:32:19.188Z,55.50
2018-02-12T05:34:48.277Z,55.30
2018-02-12T05:37:17.321Z,55.30
2018-02-12T05:39:46.416Z,55.50
2018-02-12T05:42:15.493Z,55.20
2018-02-12T05:44:45.377Z,54.90
2018-02-12T05:47:14.437Z,54.90
2018-02-12T05:49:43.549Z,54.60
2018-02-12T05:52:12.626Z,54.90
2018-02-12T05:54:43.197Z,55.00
2018-02-12T05:57:12.254Z,55.00
2018-02-12T05:59:41.497Z,55.00
2018-02-12T06:02:10.568Z,55.10
2018-02-12T06:04:39.681Z,54.80
2018-02-12T06:07:08.753Z,54.70
2018-02-12T06:09:37.985Z,54.80
2018-02-12T06:12:07.046Z,54.70
2018-02-12T06:14:36.144Z,54.70
2018-02-12T06:17:05.218Z,54.70
2018-02-12T06:19:34.262Z,54.70
2018-02-12T06:22:03.390Z,54.70
2018-02-12T06:24:32.466Z,54.70
2018-02-12T06:27:01.528Z,54.80
2018-02-12T06:29:31.401Z,54.60
2018-02-12T06:32:00.577Z,54.50
2018-02-12T06:34:29.641Z,54.80
2018-02-12T06:36:58.742Z,54.80
2018-02-12T06:39:27.837Z,54.80
2018-02-12T06:41:56.939Z,54.80
2018-02-12T06:44:26.025Z,54.80
2018-02-12T06:46:55.145Z,54.80
2018-02-12T06:49:24.197Z,54.80
2018-02-12T06:51:53.318Z,54.80
2018-02-12T06:54:22.361Z,54.80
2018-02-12T06:56:52.197Z,54.70
2018-02-12T06:59:21.261Z,54.60
2018-02-12T07:01:50.385Z,54.80
2018-02-12T07:04:19.438Z,54.70
2018-02-12T07:06:48.654Z,54.80
2018-02-12T07:09:17.706Z,54.90
2018-02-12T07:11:46.750Z,54.50
2018-02-12T07:14:16.594Z,54.10
2018-02-12T07:16:45.642Z,54.00
2018-02-12T07:19:14.724Z,54.20
2018-02-12T07:21:43.766Z,53.80
2018-02-12T07:24:12.935Z,53.80
2018-02-12T07:26:41.977Z,53.60
2018-02-12T07:29:11.150Z,53.40
2018-02-12T07:31:40.207Z,53.60
2018-02-12T07:34:09.328Z,53.70
2018-02-12T07:36:38.373Z,53.60
2018-02-12T07:39:07.532Z,53.30
2018-02-12T07:41:36.633Z,53.20
2018-02-12T07:44:05.824Z,53.00
2018-02-12T07:46:34.913Z,52.80
2018-02-12T07:49:04.726Z,52.30
2018-02-12T07:51:34.586Z,52.60
2018-02-12T07:54:03.746Z,52.00
2018-02-12T07:56:32.778Z,51.70
2018-02-12T07:59:02.682Z,51.70
2018-02-12T08:01:31.746Z,51.60
2018-02-12T08:04:00.884Z,51.70
2018-02-12T08:06:29.926Z,51.80
2018-02-12T08:08:59.046Z,51.80
2018-02-12T08:11:28.865Z,52.60
2018-02-12T08:13:57.959Z,52.60
2018-02-12T08:16:27.057Z,53.50
2018-02-12T08:18:56.106Z,52.70
2018-02-12T08:21:26.005Z,52.00
2018-02-12T08:23:55.105Z,52.00
2018-02-12T08:26:24.177Z,51.40
2018-02-12T08:28:53.226Z,51.40
2018-02-12T08:31:22.325Z,51.50
2018-02-12T08:33:51.374Z,51.00
2018-02-12T08:36:20.469Z,51.50
2018-02-12T08:38:49.521Z,51.50
2018-02-12T08:41:18.731Z,51.50
2018-02-12T08:43:47.794Z,51.50
2018-02-12T08:46:16.842Z,51.50
2018-02-12T08:48:46.685Z,50.20
2018-02-12T08:51:15.757Z,50.20
2018-02-12T08:53:44.862Z,50.50
2018-02-12T08:56:13.905Z,50.30
2018-02-12T08:58:43.026Z,50.60
2018-02-12T09:01:12.085Z,50.20
2018-02-12T09:03:41.926Z,50.30
2018-02-12T09:06:11.012Z,50.40
2018-02-12T09:08:40.134Z,50.20
2018-02-12T09:11:09.205Z,50.30
2018-02-12T09:13:38.309Z,49.80
2018-02-12T09:16:07.368Z,49.80
2018-02-12T09:18:36.529Z,49.60
2018-02-12T09:21:05.629Z,49.10
2018-02-12T09:23:34.678Z,49.70
2018-02-12T09:26:03.736Z,48.60
2018-02-12T09:28:33.597Z,48.50
2018-02-12T09:31:02.677Z,48.50
2018-02-12T09:33:32.517Z,48.40
2018-02-12T09:36:01.590Z,48.30
2018-02-12T09:38:30.713Z,48.20
2018-02-12T09:41:00.597Z,47.70
2018-02-12T09:43:29.678Z,47.70
2018-02-12T09:45:58.749Z,47.70
2018-02-12T09:48:27.826Z,47.70
2018-02-12T09:50:56.877Z,47.60
2018-02-12T09:53:26.745Z,47.50
2018-02-12T09:55:55.793Z,47.40
2018-02-12T09:58:24.945Z,47.70
2018-02-12T10:00:54.018Z,47.40
2018-02-12T10:03:23.117Z,47.00
2018-02-12T10:05:52.162Z,46.90
2018-02-12T10:08:22.025Z,46.70
2018-02-12T10:10:51.126Z,46.60
2018-02-12T10:13:20.169Z,46.20
2018-02-12T10:15:49.323Z,46.70
2018-02-12T10:18:19.157Z,46.90
2018-02-12T10:20:48.248Z,46.90
2018-02-12T10:23:18.085Z,45.90
2018-02-12T10:25:47.977Z,46.00
2018-02-12T10:28:17.045Z,45.90
2018-02-12T10:30:46.123Z,45.60
2018-02-12T10:33:15.998Z,44.70
2018-02-12T10:35:45.047Z,45.10
2018-02-12T10:38:15.639Z,44.50
2018-02-12T10:40:44.745Z,44.50
2018-02-12T10:43:13.828Z,44.30
2018-02-12T10:45:43.698Z,43.40
2018-02-12T10:48:13.601Z,43.40
2018-02-12T10:50:43.437Z,43.40
2018-02-12T10:53:12.661Z,43.40
2018-02-12T10:55:41.705Z,44.00
2018-02-12T10:58:10.823Z,44.00
2018-02-12T11:00:39.865Z,43.90
2018-02-12T11:03:09.705Z,43.70
2018-02-12T11:05:38.793Z,43.70
2018-02-12T11:08:07.893Z,43.10
2018-02-12T11:10:37.045Z,43.60
2018-02-12T11:13:06.113Z,44.10
2018-02-12T11:15:35.208Z,43.30
2018-02-12T11:18:04.300Z,43.00
2018-02-12T11:20:33.386Z,43.90
2018-02-12T11:23:02.430Z,44.10
2018-02-12T11:25:31.519Z,43.60
2018-02-12T11:28:00.589Z,44.00
2018-02-12T11:30:30.425Z,41.80
2018-02-12T11:32:59.485Z,41.80
2018-02-12T11:35:28.530Z,41.80
2018-02-12T11:37:58.370Z,41.00
2018-02-12T11:40:28.509Z,39.70
2018-02-12T11:42:57.602Z,40.40
2018-02-12T11:45:27.414Z,40.90
2018-02-12T11:47:56.578Z,40.80
2018-02-12T11:50:25.645Z,40.80
2018-02-12T11:52:54.710Z,40.90
2018-02-12T11:55:23.784Z,41.40
2018-02-12T11:57:53.618Z,40.20
2018-02-12T12:00:22.756Z,40.20
2018-02-12T12:02:51.794Z,41.20
2018-02-12T12:05:20.910Z,39.60
2018-02-12T12:07:50.761Z,40.20
2018-02-12T12:10:20.601Z,40.60
2018-02-12T12:12:49.678Z,40.60
2018-02-12T12:15:18.789Z,40.30
2018-02-12T12:17:47.881Z,40.50
2018-02-12T12:20:16.952Z,40.90
2018-02-12T12:22:46.050Z,40.20
2018-02-12T12:25:15.090Z,39.70
2018-02-12T12:27:44.173Z,38.70
2018-02-12T12:30:13.235Z,38.20
2018-02-12T12:32:42.356Z,38.40
2018-02-12T12:35:11.413Z,37.90
2018-02-12T12:37:40.457Z,37.50
2018-02-12T12:40:09.590Z,36.60
2018-02-12T12:42:39.398Z,37.30
2018-02-12T12:45:08.502Z,37.20
2018-02-12T12:47:37.538Z,36.40
2018-02-12T12:50:06.626Z,36.40
2018-02-12T12:52:35.690Z,36.60
2018-02-12T12:55:04.753Z,36.20
2018-02-12T12:57:33.881Z,36.70
2018-02-12T13:00:02.919Z,36.20
2018-02-12T13:02:31.973Z,36.30
2018-02-12T13:05:01.073Z,36.10
2018-02-12T13:07:30.113Z,35.20
2018-02-12T13:09:59.171Z,35.20
2018-02-12T13:12:28.265Z,35.00
2018-02-12T13:14:57.344Z,35.40
2018-02-12T13:17:26.429Z,35.20
2018-02-12T13:19:55.541Z,36.00
2018-02-12T13:22:24.605Z,35.40
2018-02-12T13:24:53.665Z,35.20
2018-02-12T13:27:22.725Z,34.70
2018-02-12T13:29:51.789Z,34.60
2018-02-12T13:32:21.042Z,34.90
2018-02-12T13:34:50.086Z,35.20
2018-02-12T13:37:19.173Z,35.20
2018-02-12T13:39:48.261Z,35.30
2018-02-12T13:42:18.218Z,35.30
2018-02-12T13:44:47.274Z,35.30
2018-02-12T13:47:16.378Z,35.20
2018-02-12T13:49:45.492Z,35.20
2018-02-12T13:52:15.314Z,35.20
2018-02-12T13:54:44.390Z,35.20
2018-02-12T13:57:13.490Z,35.00
2018-02-12T13:59:42.557Z,35.80
2018-02-12T14:02:11.618Z,36.20
2018-02-12T14:04:40.658Z,35.00
2018-02-12T14:07:09.837Z,35.00
2018-02-12T14:09:38.933Z,34.80
2018-02-12T14:12:08.002Z,35.20
2018-02-12T14:14:37.072Z,35.60
2018-02-12T14:17:06.126Z,35.90
2018-02-12T14:19:35.210Z,36.10
2018-02-12T14:22:04.308Z,36.10
2018-02-12T14:24:33.365Z,36.40
2018-02-12T14:27:03.165Z,36.80
2018-02-12T14:29:32.254Z,36.40
2018-02-12T14:32:01.305Z,36.50
2018-02-12T14:34:30.403Z,36.00
2018-02-12T14:36:59.441Z,35.40
2018-02-12T14:39:28.514Z,36.10
2018-02-12T14:41:57.590Z,36.20
2018-02-12T14:44:26.697Z,36.10
2018-02-12T14:46:55.947Z,36.60
2018-02-12T14:49:25.904Z,37.00
2018-02-12T14:51:55.757Z,36.90
2018-02-12T14:54:24.826Z,36.90
2018-02-12T14:56:53.940Z,36.40
2018-02-12T14:59:23.010Z,37.00
2018-02-12T15:01:52.123Z,36.80
2018-02-12T15:04:21.181Z,37.30
2018-02-12T15:06:51.013Z,37.50
2018-02-12T15:09:20.826Z,37.70
2018-02-12T15:11:49.901Z,37.70
2018-02-12T15:14:18.940Z,38.80
2018-02-12T15:16:48.002Z,38.20
2018-02-12T15:19:17.037Z,38.30
2018-02-12T15:21:46.082Z,38.50
2018-02-12T15:24:15.963Z,39.60
2018-02-12T15:26:44.998Z,38.90
2018-02-12T15:29:14.106Z,38.90
2018-02-12T15:31:43.186Z,38.90
2018-02-12T15:34:12.241Z,39.30
2018-02-12T15:36:42.103Z,40.40
2018-02-12T15:39:11.207Z,39.70
2018-02-12T15:41:40.282Z,39.90
2018-02-12T15:44:09.369Z,39.90
2018-02-12T15:46:38.406Z,40.30
2018-02-12T15:49:07.494Z,40.10
2018-02-12T15:51:36.541Z,40.30
2018-02-12T15:54:06.394Z,40.50
2018-02-12T15:56:35.485Z,40.40
2018-02-12T15:59:05.309Z,40.90
2018-02-12T16:01:34.394Z,40.80
2018-02-12T16:04:03.508Z,41.00
2018-02-12T16:06:33.373Z,41.60
2018-02-12T16:09:02.434Z,41.60
2018-02-12T16:11:31.502Z,41.70
2018-02-12T16:14:00.575Z,41.90
2018-02-12T16:16:30.547Z,42.30
2018-02-12T16:18:59.610Z,42.30
2018-02-12T16:21:28.657Z,42.60
2018-02-12T16:23:57.765Z,42.20
2018-02-12T16:26:26.837Z,42.50
2018-02-12T16:28:55.914Z,42.70
2018-02-12T16:31:24.953Z,43.90
2018-02-12T16:33:54.189Z,43.10
2018-02-12T16:36:24.022Z,43.10
2018-02-12T16:38:53.853Z,42.70
2018-02-12T16:41:22.894Z,42.70
2018-02-12T16:43:51.965Z,42.50
2018-02-12T16:46:21.766Z,43.20
2018-02-12T16:48:50.874Z,43.10
2018-02-12T16:51:19.939Z,43.40
2018-02-12T16:53:49.063Z,43.70
2018-02-12T16:56:18.141Z,43.80
2018-02-12T16:58:47.317Z,44.00
2018-02-12T17:01:17.154Z,44.70
2018-02-12T17:03:47.067Z,44.90
2018-02-12T17:06:16.141Z,44.80
2018-02-12T17:08:45.226Z,45.20
2018-02-12T17:11:14.337Z,45.70
2018-02-12T17:13:43.393Z,46.30
2018-02-12T17:16:12.477Z,46.30
2018-02-12T17:18:41.516Z,46.30
2018-02-12T17:21:10.613Z,46.30
2018-02-12T17:23:39.654Z,46.30
2018-02-12T17:26:08.719Z,46.20
2018-02-12T17:28:37.757Z,46.70
2018-02-12T17:31:06.871Z,46.60
2018-02-12T17:33:35.938Z,46.70
2018-02-12T17:36:05.057Z,47.00
2018-02-12T17:38:34.109Z,47.10
2018-02-12T17:41:03.266Z,46.90
2018-02-12T17:43:32.325Z,47.20
2018-02-12T17:46:01.410Z,47.10
2018-02-12T17:48:30.481Z,47.10
2018-02-12T17:50:59.561Z,47.40
2018-02-12T17:53:28.632Z,47.40
2018-02-12T17:55:57.693Z,48.10
2018-02-12T17:58:27.581Z,47.80
2018-02-12T18:00:56.722Z,47.80
2018-02-12T18:03:25.805Z,47.80
2018-02-12T18:05:54.916Z,48.00
2018-02-12T18:08:23.989Z,48.00
2018-02-12T18:10:53.129Z,48.00
2018-02-12T18:13:22.203Z,48.10
2018-02-12T18:15:51.317Z,48.30
2018-02-12T18:18:20.386Z,48.40
2018-02-12T18:20:49.493Z,48.50
2018-02-12T18:23:18.562Z,48.60
2018-02-12T18:25:47.637Z,48.80
2018-02-12T18:28:17.525Z,49.00
2018-02-12T18:30:46.593Z,49.00
2018-02-12T18:33:15.710Z,49.00
2018-02-12T18:35:44.758Z,49.00
2018-02-12T18:38:14.037Z,49.20
2018-02-12T18:40:43.810Z,49.80
2018-02-12T18:43:12.886Z,49.80
2018-02-12T18:45:41.929Z,49.80
2018-02-12T18:48:11.061Z,49.80
2018-02-12T18:50:40.867Z,49.80
2018-02-12T18:53:09.990Z,49.80
2018-02-12T18:55:39.077Z,49.80
2018-02-12T18:58:08.144Z,49.80
2018-02-12T19:00:37.254Z,49.80
2018-02-12T19:03:06.319Z,49.80
2018-02-12T19:05:35.452Z,50.50
2018-02-12T19:08:05.262Z,50.90
2018-02-12T19:10:34.397Z,50.80
2018-02-12T19:13:03.442Z,51.10
2018-02-12T19:15:32.552Z,51.40
2018-02-12T19:18:01.622Z,51.40
2018-02-12T19:20:31.434Z,51.80
2018-02-12T19:23:01.318Z,51.80
2018-02-12T19:25:30.377Z,51.60
2018-02-12T19:28:00.237Z,52.30
2018-02-12T19:30:30.101Z,51.70
2018-02-12T19:32:59.215Z,51.70
2018-02-12T19:35:28.274Z,51.60
2018-02-12T19:37:57.410Z,51.80
2018-02-12T19:40:26.565Z,51.40
2018-02-12T19:42:56.333Z,51.60
2018-02-12T19:45:25.435Z,51.70
2018-02-12T19:47:54.481Z,51.60
2018-02-12T19:50:23.569Z,51.70
2018-02-12T19:52:52.616Z,51.80
2018-02-12T19:55:21.742Z,51.90
2018-02-12T19:57:51.600Z,52.00
2018-02-12T20:00:20.806Z,52.00
2018-02-12T20:02:49.854Z,51.80
2018-02-12T20:05:19.001Z,52.10
2018-02-12T20:07:48.930Z,52.90
2018-02-12T20:10:18.062Z,52.20
2018-02-12T20:12:47.966Z,52.20
2018-02-12T20:15:17.027Z,52.10
2018-02-12T20:17:46.110Z,52.30
2018-02-12T20:20:15.258Z,52.60
2018-02-12T20:22:44.393Z,52.60
2018-02-12T20:25:13.493Z,52.30
2018-02-12T20:27:42.601Z,52.30
2018-02-12T20:30:11.730Z,52.50
2018-02-12T20:32:40.958Z,52.50
2018-02-12T20:35:10.059Z,52.70
2018-02-12T20:37:39.197Z,52.30
2018-02-12T20:40:09.037Z,53.50
2018-02-12T20:42:38.194Z,53.50
2018-02-12T20:45:07.247Z,53.40
2018-02-12T20:47:36.372Z,53.40
2018-02-12T20:50:05.449Z,53.40
2018-02-12T20:52:34.597Z,53.40
2018-02-12T20:55:03.729Z,54.00
2018-02-12T20:57:32.845Z,53.40
2018-02-12T21:00:01.967Z,53.40
2018-02-12T21:02:31.114Z,53.40
2018-02-12T21:05:01.008Z,53.40
2018-02-12T21:07:30.121Z,53.40
2018-02-12T21:09:59.213Z,53.40
2018-02-12T21:12:28.287Z,53.40
2018-02-12T21:14:58.181Z,53.70
2018-02-12T21:17:27.308Z,53.60
2018-02-12T21:19:56.505Z,53.60
2018-02-12T21:22:26.479Z,53.80
2018-02-12T21:24:55.561Z,53.80
2018-02-12T21:27:25.441Z,54.00
2018-02-12T21:29:54.497Z,54.00
2018-02-12T21:32:24.370Z,53.80
2018-02-12T21:34:53.422Z,54.20
2018-02-12T21:37:22.519Z,54.30
2018-02-12T21:39:51.577Z,54.10
2018-02-12T21:42:21.445Z,54.10
2018-02-12T21:44:50.495Z,54.00
2018-02-12T21:47:20.363Z,54.30
2018-02-12T21:49:49.492Z,54.20
2018-02-12T21:52:18.569Z,54.20
2018-02-12T21:54:47.672Z,54.30
2018-02-12T21:57:16.733Z,54.40
2018-02-12T21:59:45.845Z,54.40
2018-02-12T22:02:14.987Z,54.40
2018-02-12T22:04:44.098Z,54.40
2018-02-12T22:07:14.042Z,54.40
2018-02-12T22:09:43.933Z,54.60
2018-02-12T22:12:12.990Z,54.60
2018-02-12T22:14:42.065Z,54.40
2018-02-12T22:17:11.123Z,54.50
2018-02-12T22:19:40.226Z,54.40
2018-02-12T22:22:09.337Z,54.50
2018-02-12T22:24:38.414Z,54.70
2018-02-12T22:27:08.317Z,54.70
2018-02-12T22:29:37.651Z,54.70
2018-02-12T22:32:06.762Z,54.80
2018-02-12T22:34:35.822Z,54.60
2018-02-12T22:37:04.922Z,54.40
2018-02-12T22:39:34.018Z,54.50
2018-02-12T22:42:03.193Z,54.40
2018-02-12T22:44:33.780Z,54.40
2018-02-12T22:47:02.958Z,54.40
2018-02-12T22:49:32.838Z,54.40
2018-02-12T22:52:01.891Z,54.70
2018-02-12T22:54:30.993Z,54.50
2018-02-12T22:57:00.074Z,54.20
2018-02-12T22:59:29.201Z,54.10
2018-02-12T23:01:58.293Z,54.40
2018-02-12T23:04:27.375Z,54.50
2018-02-12T23:06:56.484Z,54.60
2018-02-12T23:09:25.588Z,54.40
2018-02-12T23:11:55.460Z,54.20
2018-02-12T23:14:24.537Z,54.20
2018-02-12T23:16:59.324Z,54.40
2018-02-12T23:19:28.385Z,54.50
2018-02-12T23:21:58.224Z,54.00
2018-02-12T23:24:27.306Z,53.90
2018-02-12T23:26:57.129Z,54.50
2018-02-12T23:29:26.954Z,54.50
2018-02-12T23:31:56.092Z,54.50
2018-02-12T23:34:25.177Z,54.40
2018-02-12T23:36:55.002Z,55.30
2018-02-12T23:39:24.910Z,54.80
2018-02-12T23:41:54.018Z,54.60
2018-02-12T23:44:23.098Z,54.50
2018-02-12T23:46:52.209Z,54.60
2018-02-12T23:49:21.286Z,54.50
2018-02-12T23:51:51.194Z,54.50
2018-02-12T23:54:25.658Z,54.50
2018-02-12T23:56:54.808Z,54.40
2018-02-12T23:59:23.862Z,54.60
